Terminal Aerodrome Forecast
Issued by NWS Grand Junction, CO

Home | Current Version | Previous Version | Text Only | Print | Product List | Glossary On
Versions: 1 2 3 4 5 6 7 8 9 10 11 12 13 14 15 16 17 18
000
FTUS45 KGJT 191131
TAFGJT
TAF
KGJT 191131Z 1912/2012 13011KT P6SM SKC
     FM191500 16017G27KT P6SM FEW140 FEW200
     FM191700 22021G33KT P6SM FEW140 FEW200
     FM200400 30006KT P6SM FEW110 FEW200
     FM200600 33006KT P6SM FEW110 FEW200=

USA.gov is the U.S. government's official web portal to all federal, state and local government web resources and services.